createdAt,value
2018-07-09T00:00:59.708Z,42.87
2018-07-09T00:03:28.355Z,43.08
2018-07-09T00:05:56.944Z,42.28
2018-07-09T00:08:25.670Z,42.67
2018-07-09T00:11:01.880Z,43.15
2018-07-09T00:13:32.383Z,43.45
2018-07-09T00:16:01.548Z,44.08
2018-07-09T00:18:30.324Z,43.86
2018-07-09T00:20:59.364Z,43.32
2018-07-09T00:23:28.104Z,43.84
2018-07-09T00:25:57.401Z,43.50
2018-07-09T00:28:26.453Z,43.46
2018-07-09T00:30:55.307Z,43.46
2018-07-09T00:33:24.076Z,43.75
2018-07-09T00:35:52.774Z,43.67
2018-07-09T00:38:21.660Z,43.78
2018-07-09T00:40:50.323Z,43.83
2018-07-09T00:43:19.153Z,44.63
2018-07-09T00:45:47.786Z,44.51
2018-07-09T00:48:16.323Z,44.70
2018-07-09T00:50:45.200Z,44.38
2018-07-09T00:53:14.323Z,44.57
2018-07-09T00:55:42.959Z,44.24
2018-07-09T00:58:12.064Z,44.86
2018-07-09T01:00:40.721Z,44.35
2018-07-09T01:03:09.307Z,44.50
2018-07-09T01:05:37.926Z,44.92
2018-07-09T01:08:06.585Z,44.72
2018-07-09T01:10:45.244Z,44.67
2018-07-09T01:13:13.944Z,45.16
2018-07-09T01:15:42.688Z,44.69
2018-07-09T01:18:11.817Z,44.82
2018-07-09T01:20:40.457Z,45.00
2018-07-09T01:23:09.140Z,44.82
2018-07-09T01:25:38.279Z,45.45
2018-07-09T01:28:07.020Z,45.51
2018-07-09T01:30:36.206Z,46.00
2018-07-09T01:33:05.244Z,45.50
2018-07-09T01:35:34.733Z,46.02
2018-07-09T01:38:03.300Z,46.20
2018-07-09T01:40:32.229Z,45.96
2018-07-09T01:43:00.851Z,46.00
2018-07-09T01:45:29.475Z,45.96
2018-07-09T01:47:58.299Z,45.20
2018-07-09T01:50:27.348Z,45.96
2018-07-09T01:52:56.913Z,45.96
2018-07-09T01:55:26.415Z,45.75
2018-07-09T01:57:55.044Z,45.41
2018-07-09T02:00:23.775Z,46.03
2018-07-09T02:02:52.655Z,46.77
2018-07-09T02:05:21.195Z,46.91
2018-07-09T02:07:49.950Z,46.90
2018-07-09T02:10:18.600Z,47.42
2018-07-09T02:12:47.351Z,47.13
2018-07-09T02:15:16.827Z,47.34
2018-07-09T02:17:45.968Z,47.37
2018-07-09T02:20:14.527Z,48.20
2018-07-09T02:22:43.320Z,48.30
2018-07-09T02:25:11.952Z,47.83
2018-07-09T02:27:40.611Z,48.08
2018-07-09T02:30:09.188Z,48.77
2018-07-09T02:32:38.341Z,48.33
2018-07-09T02:35:07.103Z,48.76
2018-07-09T02:37:35.715Z,48.05
2018-07-09T02:40:04.455Z,47.86
2018-07-09T02:42:33.600Z,48.84
2018-07-09T02:45:02.332Z,48.50
2018-07-09T02:47:31.466Z,47.74
2018-07-09T02:50:00.129Z,48.50
2018-07-09T02:52:28.776Z,48.40
2018-07-09T02:54:57.988Z,48.61
2018-07-09T02:57:26.528Z,48.71
2018-07-09T02:59:55.911Z,50.00
2018-07-09T03:02:24.508Z,48.73
2018-07-09T03:04:53.150Z,49.34
2018-07-09T03:07:21.727Z,49.11
2018-07-09T03:09:50.513Z,48.80
2018-07-09T03:12:19.060Z,48.61
2018-07-09T03:14:47.694Z,48.71
2018-07-09T03:17:16.397Z,49.31
2018-07-09T03:19:45.395Z,49.23
2018-07-09T03:22:14.320Z,48.61
2018-07-09T03:24:43.389Z,48.56
2018-07-09T03:27:12.260Z,48.94
2018-07-09T03:29:41.825Z,49.43
2018-07-09T03:32:10.888Z,49.55
2018-07-09T03:34:39.720Z,49.26
2018-07-09T03:37:08.411Z,49.38
2018-07-09T03:39:37.265Z,49.41
2018-07-09T03:42:05.816Z,49.55
2018-07-09T03:44:34.368Z,48.95
2018-07-09T03:47:03.116Z,49.59
2018-07-09T03:49:32.947Z,49.53
2018-07-09T03:52:01.776Z,49.92
2018-07-09T03:54:30.792Z,50.36
2018-07-09T03:56:59.431Z,50.41
2018-07-09T03:59:28.162Z,50.33
2018-07-09T04:01:57.155Z,50.30
2018-07-09T04:04:25.818Z,50.02
2018-07-09T04:06:54.607Z,50.16
2018-07-09T04:09:23.196Z,49.73
2018-07-09T04:11:51.984Z,49.58
2018-07-09T04:14:20.700Z,49.61
2018-07-09T04:16:49.349Z,49.81
2018-07-09T04:19:18.331Z,50.15
2018-07-09T04:21:47.026Z,50.12
2018-07-09T04:24:15.943Z,49.88
2018-07-09T04:26:44.543Z,49.68
2018-07-09T04:29:13.403Z,49.80
2018-07-09T04:31:42.321Z,49.63
2018-07-09T04:34:11.042Z,49.82
2018-07-09T04:36:39.738Z,49.33
2018-07-09T04:39:09.097Z,49.07
2018-07-09T04:41:37.994Z,48.79
2018-07-09T04:44:06.603Z,48.13
2018-07-09T04:46:35.879Z,49.03
2018-07-09T04:49:04.523Z,48.63
2018-07-09T04:51:33.184Z,48.83
2018-07-09T04:54:01.846Z,48.58
2018-07-09T04:56:30.586Z,48.65
2018-07-09T04:58:59.135Z,48.47
2018-07-09T05:01:27.722Z,48.02
2018-07-09T05:03:56.321Z,48.58
2018-07-09T05:06:25.059Z,48.34
2018-07-09T05:08:53.819Z,48.07
2018-07-09T05:11:22.521Z,48.03
2018-07-09T05:13:51.135Z,47.29
2018-07-09T05:16:19.987Z,47.58
2018-07-09T05:18:48.620Z,47.91
2018-07-09T05:21:17.411Z,47.04
2018-07-09T05:23:46.325Z,47.19
2018-07-09T05:26:14.979Z,46.82
2018-07-09T05:28:43.555Z,46.37
2018-07-09T05:31:12.185Z,45.89
2018-07-09T05:33:40.880Z,46.00
2018-07-09T05:36:09.628Z,45.50
2018-07-09T05:38:38.531Z,45.13
2018-07-09T05:41:07.139Z,44.18
2018-07-09T05:43:36.823Z,44.10
2018-07-09T05:46:06.276Z,44.14
2018-07-09T05:48:35.236Z,44.10
2018-07-09T05:51:04.236Z,43.47
2018-07-09T05:53:33.184Z,43.90
2018-07-09T05:56:01.813Z,43.10
2018-07-09T05:58:30.464Z,42.60
2018-07-09T06:01:00.129Z,42.87
2018-07-09T06:03:28.770Z,42.10
2018-07-09T06:05:57.512Z,40.99
2018-07-09T06:08:26.515Z,39.12
2018-07-09T06:10:56.487Z,39.05
2018-07-09T06:13:26.425Z,39.07
2018-07-09T06:15:55.240Z,38.15
2018-07-09T06:18:23.851Z,37.05
2018-07-09T06:20:53.725Z,37.96
2018-07-09T06:23:23.121Z,37.43
2018-07-09T06:25:53.271Z,36.38
2018-07-09T06:28:23.473Z,36.68
2018-07-09T06:30:54.068Z,36.85
2018-07-09T06:33:23.231Z,36.64
2018-07-09T06:35:53.371Z,36.32
2018-07-09T06:38:24.087Z,35.28
2018-07-09T06:40:54.438Z,36.35
2018-07-09T06:43:23.847Z,35.65
2018-07-09T06:45:54.739Z,36.00
2018-07-09T06:48:25.640Z,34.62
2018-07-09T06:50:55.949Z,34.41
2018-07-09T06:53:25.748Z,34.19
2018-07-09T06:55:54.544Z,33.60
2018-07-09T06:58:23.543Z,31.97
2018-07-09T07:00:54.400Z,31.34
2018-07-09T07:03:24.618Z,28.88
2018-07-09T07:05:53.614Z,28.50
2018-07-09T07:08:24.260Z,27.75
2018-07-09T07:10:55.075Z,27.00
2018-07-09T07:13:25.415Z,26.17
2018-07-09T07:15:54.282Z,26.83
2018-07-09T07:18:24.061Z,26.04
2018-07-09T07:20:55.422Z,25.14
2018-07-09T07:23:24.391Z,25.40
2018-07-09T07:25:53.137Z,25.40
2018-07-09T07:28:22.150Z,26.54
2018-07-09T07:30:51.078Z,27.38
2018-07-09T07:33:19.900Z,25.20
2018-07-09T07:35:48.686Z,26.34
2018-07-09T07:38:17.552Z,25.02
2018-07-09T07:40:46.196Z,24.66
2018-07-09T07:43:14.830Z,25.51
2018-07-09T07:45:43.579Z,26.22
2018-07-09T07:48:12.167Z,26.37
2018-07-09T07:50:40.817Z,25.40
2018-07-09T07:53:09.639Z,24.96
2018-07-09T07:55:38.217Z,24.63
2018-07-09T07:58:06.948Z,24.70
2018-07-09T08:00:35.772Z,25.99
2018-07-09T08:03:04.375Z,25.45
2018-07-09T08:05:33.037Z,25.99
2018-07-09T08:08:01.653Z,24.89
2018-07-09T08:10:30.244Z,24.83
2018-07-09T08:13:01.002Z,24.44
2018-07-09T08:15:27.844Z,24.19
2018-07-09T08:17:56.562Z,24.76
2018-07-09T08:20:25.547Z,24.65
2018-07-09T08:22:54.236Z,24.43
2018-07-09T08:25:23.070Z,23.08
2018-07-09T08:27:52.107Z,22.99
2018-07-09T08:30:20.748Z,23.07
2018-07-09T08:32:49.420Z,22.99
2018-07-09T08:35:18.371Z,22.00
2018-07-09T08:37:47.021Z,22.76
2018-07-09T08:40:15.863Z,22.59
2018-07-09T08:42:44.695Z,22.97
2018-07-09T08:45:13.431Z,21.36
2018-07-09T08:47:42.183Z,22.74
2018-07-09T08:50:11.003Z,22.90
2018-07-09T08:52:39.631Z,22.85
2018-07-09T08:55:08.327Z,22.31
2018-07-09T08:57:37.355Z,21.33
2018-07-09T09:00:05.996Z,21.62
2018-07-09T09:02:34.540Z,21.71
2018-07-09T09:05:03.317Z,20.57
2018-07-09T09:07:31.970Z,20.57
2018-07-09T09:10:00.627Z,19.50
2018-07-09T09:12:29.295Z,19.84
2018-07-09T09:14:58.024Z,20.98
2018-07-09T09:17:26.811Z,21.13
2018-07-09T09:19:55.731Z,19.52
2018-07-09T09:22:24.396Z,19.58
2018-07-09T09:24:53.048Z,18.95
2018-07-09T09:27:21.628Z,17.94
2018-07-09T09:29:51.359Z,19.46
2018-07-09T09:32:20.031Z,19.25
2018-07-09T09:34:48.645Z,18.50
2018-07-09T09:37:17.532Z,17.10
2018-07-09T09:39:46.265Z,17.67
2018-07-09T09:42:15.127Z,18.13
2018-07-09T09:44:43.775Z,17.27
2018-07-09T09:47:12.355Z,17.81
2018-07-09T09:49:41.303Z,16.95
2018-07-09T09:52:09.937Z,16.33
2018-07-09T09:54:38.484Z,16.26
2018-07-09T09:57:07.139Z,16.46
2018-07-09T09:59:35.691Z,15.96
2018-07-09T10:02:04.484Z,14.75
2018-07-09T10:04:33.736Z,15.48
2018-07-09T10:07:02.784Z,14.13
2018-07-09T10:09:31.463Z,13.64
2018-07-09T10:12:00.037Z,12.53
2018-07-09T10:14:28.709Z,12.46
2018-07-09T10:16:57.565Z,12.22
2018-07-09T10:19:26.111Z,12.21
2018-07-09T10:21:54.910Z,13.38
2018-07-09T10:24:23.564Z,13.82
2018-07-09T10:26:52.433Z,13.18
2018-07-09T10:29:21.038Z,13.42
2018-07-09T10:31:49.720Z,12.66
2018-07-09T10:34:18.959Z,13.02
2018-07-09T10:36:47.612Z,11.29
2018-07-09T10:39:16.401Z,13.70
2018-07-09T10:41:45.537Z,13.00
2018-07-09T10:44:14.219Z,12.28
2018-07-09T10:46:43.242Z,12.17
2018-07-09T10:49:12.235Z,12.11
2018-07-09T10:51:40.943Z,11.80
2018-07-09T10:54:09.597Z,12.77
2018-07-09T10:56:38.512Z,10.71
2018-07-09T10:59:07.207Z,9.43
2018-07-09T11:01:35.851Z,11.40
2018-07-09T11:04:04.656Z,11.64
2018-07-09T11:06:33.543Z,11.25
2018-07-09T11:09:02.183Z,10.83
2018-07-09T11:11:31.247Z,10.73
2018-07-09T11:13:59.907Z,9.18
2018-07-09T11:16:28.540Z,9.61
2018-07-09T11:18:57.588Z,10.77
2018-07-09T11:21:26.224Z,10.35
2018-07-09T11:23:55.062Z,11.93
2018-07-09T11:26:24.198Z,16.25
2018-07-09T11:28:52.931Z,17.05
2018-07-09T11:31:21.552Z,15.77
2018-07-09T11:33:50.407Z,11.27
2018-07-09T11:36:19.359Z,11.55
2018-07-09T11:38:48.031Z,11.03
2018-07-09T11:41:16.626Z,10.98
2018-07-09T11:43:45.360Z,11.76
2018-07-09T11:46:14.169Z,11.29
2018-07-09T11:48:43.243Z,13.29
2018-07-09T11:51:12.391Z,16.20
2018-07-09T11:53:41.025Z,17.98
2018-07-09T11:56:09.823Z,18.03
2018-07-09T11:58:38.529Z,16.01
2018-07-09T12:01:07.144Z,13.28
2018-07-09T12:03:35.896Z,11.00
2018-07-09T12:06:04.644Z,10.47
2018-07-09T12:08:33.340Z,9.69
2018-07-09T12:11:02.132Z,9.23
2018-07-09T12:13:30.808Z,9.92
2018-07-09T12:15:59.600Z,9.44
2018-07-09T12:18:28.594Z,11.80
2018-07-09T12:20:57.308Z,11.71
2018-07-09T12:23:26.494Z,13.72
2018-07-09T12:25:55.564Z,14.35
2018-07-09T12:28:24.240Z,15.36
2018-07-09T12:30:52.816Z,14.81
2018-07-09T12:33:21.723Z,11.84
2018-07-09T12:35:50.358Z,11.83
2018-07-09T12:38:19.399Z,10.67
2018-07-09T12:40:48.365Z,10.50
2018-07-09T12:43:17.268Z,10.19
2018-07-09T12:45:46.063Z,9.67
2018-07-09T12:48:14.736Z,9.66
2018-07-09T12:50:43.600Z,8.59
2018-07-09T12:53:12.192Z,7.27
2018-07-09T12:55:40.891Z,8.91
2018-07-09T12:58:09.763Z,9.38
2018-07-09T13:00:38.817Z,9.90
2018-07-09T13:03:07.496Z,10.28
2018-07-09T13:05:36.660Z,9.17
2018-07-09T13:08:05.315Z,9.44
2018-07-09T13:10:34.272Z,10.29
2018-07-09T13:13:03.010Z,9.91
2018-07-09T13:15:31.684Z,8.97
2018-07-09T13:18:01.201Z,9.65
2018-07-09T13:20:30.094Z,9.08
2018-07-09T13:22:59.216Z,8.81
2018-07-09T13:25:28.062Z,8.03
2018-07-09T13:27:57.012Z,8.01
2018-07-09T13:30:25.989Z,8.52
2018-07-09T13:32:54.887Z,8.55
2018-07-09T13:35:23.486Z,9.07
2018-07-09T13:37:52.346Z,8.68
2018-07-09T13:40:21.139Z,8.44
2018-07-09T13:42:49.856Z,9.15
2018-07-09T13:45:18.471Z,10.11
2018-07-09T13:47:47.095Z,9.86
2018-07-09T13:50:15.827Z,9.65
2018-07-09T13:52:44.469Z,11.87
2018-07-09T13:55:13.119Z,13.18
2018-07-09T13:57:41.703Z,14.84
2018-07-09T14:00:10.265Z,15.11
2018-07-09T14:02:38.902Z,13.16
2018-07-09T14:05:07.547Z,13.31
2018-07-09T14:07:36.230Z,11.51
2018-07-09T14:10:05.081Z,12.42
2018-07-09T14:12:33.893Z,11.19
2018-07-09T14:15:02.662Z,12.05
2018-07-09T14:17:31.652Z,12.49
2018-07-09T14:20:22.300Z,11.90
2018-07-09T14:22:51.043Z,12.72
2018-07-09T14:25:20.011Z,12.84
2018-07-09T14:27:48.915Z,11.94
2018-07-09T14:30:17.803Z,11.85
2018-07-09T14:32:46.335Z,11.76
2018-07-09T14:35:15.020Z,12.90
2018-07-09T14:37:43.884Z,11.75
2018-07-09T14:40:12.435Z,12.56
2018-07-09T14:42:41.316Z,12.12
2018-07-09T14:45:10.165Z,11.82
2018-07-09T14:47:38.888Z,11.97
2018-07-09T14:50:07.776Z,12.05
2018-07-09T14:52:36.580Z,11.85
2018-07-09T14:55:05.283Z,12.50
2018-07-09T14:57:33.986Z,12.37
2018-07-09T15:00:02.861Z,13.25
2018-07-09T15:02:31.504Z,12.00
2018-07-09T15:05:00.351Z,13.61
2018-07-09T15:07:29.317Z,15.10
2018-07-09T15:09:57.975Z,15.18
2018-07-09T15:12:26.676Z,15.48
2018-07-09T15:14:55.536Z,16.99
2018-07-09T15:17:24.116Z,17.30
2018-07-09T15:19:52.904Z,17.38
2018-07-09T15:22:21.784Z,18.76
2018-07-09T15:24:50.384Z,18.28
2018-07-09T15:27:19.115Z,18.68
2018-07-09T15:29:47.729Z,20.26
2018-07-09T15:32:21.801Z,19.96
2018-07-09T15:34:50.612Z,20.13
2018-07-09T15:37:19.231Z,19.36
2018-07-09T15:39:48.027Z,20.02
2018-07-09T15:42:16.707Z,20.64
2018-07-09T15:44:45.613Z,20.52
2018-07-09T15:47:14.188Z,20.52
2018-07-09T15:49:43.651Z,20.45
2018-07-09T15:52:12.611Z,20.40
2018-07-09T15:54:41.178Z,19.73
2018-07-09T15:57:09.987Z,20.35
2018-07-09T15:59:38.767Z,20.02
2018-07-09T16:02:07.352Z,19.43
2018-07-09T16:04:36.047Z,19.77
2018-07-09T16:07:04.699Z,20.12
2018-07-09T16:09:33.412Z,20.76
2018-07-09T16:12:01.995Z,20.13
2018-07-09T16:14:30.770Z,21.26
2018-07-09T16:17:01.709Z,20.52
2018-07-09T16:19:30.932Z,20.11
2018-07-09T16:21:59.606Z,19.72
2018-07-09T16:24:29.053Z,19.78
2018-07-09T16:26:58.016Z,19.93
2018-07-09T16:29:26.607Z,19.98
2018-07-09T16:31:55.691Z,20.38
2018-07-09T16:34:25.196Z,20.48
2018-07-09T16:36:54.216Z,20.93
2018-07-09T16:39:23.214Z,21.70
2018-07-09T16:41:52.161Z,20.96
2018-07-09T16:44:21.220Z,20.74
2018-07-09T16:46:50.308Z,21.14
2018-07-09T16:49:19.332Z,20.84
2018-07-09T16:51:48.556Z,20.88
2018-07-09T16:54:17.827Z,21.83
2018-07-09T16:56:47.047Z,22.05
2018-07-09T16:59:16.047Z,22.14
2018-07-09T17:01:44.732Z,22.24
2018-07-09T17:04:13.292Z,22.08
2018-07-09T17:06:41.926Z,21.48
2018-07-09T17:09:10.587Z,22.57
2018-07-09T17:11:39.695Z,23.28
2018-07-09T17:14:08.331Z,22.38
2018-07-09T17:16:36.935Z,21.91
2018-07-09T17:19:05.782Z,22.57
2018-07-09T17:21:34.403Z,22.17
2018-07-09T17:24:04.148Z,22.83
2018-07-09T17:26:33.039Z,22.62
2018-07-09T17:29:01.899Z,22.81
2018-07-09T17:31:30.896Z,23.23
2018-07-09T17:34:00.037Z,23.52
2018-07-09T17:36:28.977Z,22.76
2018-07-09T17:38:58.330Z,23.18
2018-07-09T17:41:27.115Z,22.82
2018-07-09T17:43:56.950Z,23.29
2018-07-09T17:46:26.207Z,23.51
2018-07-09T17:48:54.819Z,22.89
2018-07-09T17:51:23.660Z,22.84
2018-07-09T17:53:52.669Z,22.66
2018-07-09T17:56:21.383Z,23.37
2018-07-09T17:58:50.059Z,22.65
2018-07-09T18:01:18.716Z,23.25
2018-07-09T18:03:47.444Z,23.50
2018-07-09T18:06:16.471Z,23.86
2018-07-09T18:08:45.032Z,24.22
2018-07-09T18:11:13.636Z,23.99
2018-07-09T18:13:42.253Z,23.53
2018-07-09T18:16:11.047Z,24.40
2018-07-09T18:18:39.802Z,23.80
2018-07-09T18:21:09.268Z,24.52
2018-07-09T18:23:38.259Z,24.96
2018-07-09T18:26:07.420Z,24.51
2018-07-09T18:28:36.171Z,24.08
2018-07-09T18:31:05.462Z,25.12
2018-07-09T18:33:34.035Z,24.26
2018-07-09T18:36:02.664Z,24.54
2018-07-09T18:38:31.634Z,25.10
2018-07-09T18:41:00.354Z,24.56
2018-07-09T18:43:29.062Z,24.59
2018-07-09T18:45:57.711Z,24.86
2018-07-09T18:48:26.597Z,24.82
2018-07-09T18:50:55.503Z,25.17
2018-07-09T18:53:24.510Z,25.22
2018-07-09T18:55:53.188Z,25.69
2018-07-09T18:58:22.370Z,25.74
2018-07-09T19:00:51.209Z,25.57
2018-07-09T19:03:20.040Z,25.10
2018-07-09T19:07:57.119Z,26.79
2018-07-09T19:10:25.889Z,26.28
2018-07-09T19:12:54.647Z,26.53
2018-07-09T19:15:24.649Z,26.72
2018-07-09T19:18:05.711Z,25.99
2018-07-09T19:20:45.483Z,26.27
2018-07-09T19:23:13.119Z,26.46
2018-07-09T19:25:40.509Z,26.82
2018-07-09T19:28:08.574Z,26.90
2018-07-09T19:30:35.864Z,26.29
2018-07-09T19:33:03.179Z,25.66
2018-07-09T19:35:31.001Z,26.08
2018-07-09T19:37:58.534Z,25.13
2018-07-09T19:40:25.628Z,26.19
2018-07-09T19:42:53.193Z,26.22
2018-07-09T19:45:21.100Z,26.06
2018-07-09T19:47:48.453Z,26.18
2018-07-09T19:50:16.024Z,26.00
2018-07-09T19:52:43.613Z,26.93
2018-07-09T19:55:10.945Z,27.10
2018-07-09T19:57:38.460Z,27.40
2018-07-09T20:00:06.164Z,27.55
2018-07-09T20:02:33.517Z,27.87
2018-07-09T20:05:01.128Z,27.99
2018-07-09T20:07:28.429Z,27.42
2018-07-09T20:10:00.995Z,28.34
2018-07-09T20:13:37.428Z,27.86
2018-07-09T20:16:09.971Z,28.14
2018-07-09T20:18:37.606Z,28.83
2018-07-09T20:21:05.068Z,27.80
2018-07-09T20:23:32.507Z,27.95
2018-07-09T20:25:59.988Z,28.13
2018-07-09T20:28:27.324Z,27.53
2018-07-09T20:30:54.659Z,28.47
2018-07-09T20:33:22.000Z,27.80
2018-07-09T20:35:49.359Z,28.35
2018-07-09T20:38:16.831Z,28.20
2018-07-09T20:40:44.764Z,28.32
2018-07-09T20:43:12.043Z,29.28
2018-07-09T20:45:39.416Z,29.82
2018-07-09T20:48:06.745Z,29.88
2018-07-09T20:50:34.024Z,30.08
2018-07-09T20:53:01.410Z,30.37
2018-07-09T20:55:28.711Z,29.98
2018-07-09T20:57:56.019Z,31.14
2018-07-09T21:00:23.347Z,30.09
2018-07-09T21:02:50.763Z,30.21
2018-07-09T21:05:18.326Z,31.24
2018-07-09T21:07:45.764Z,31.57
2018-07-09T21:10:13.072Z,31.88
2018-07-09T21:12:45.654Z,31.20
2018-07-09T21:15:13.166Z,30.82
2018-07-09T21:17:40.460Z,31.32
2018-07-09T21:20:07.923Z,30.89
2018-07-09T21:22:35.214Z,31.08
2018-07-09T21:25:02.518Z,31.69
2018-07-09T21:27:30.056Z,31.27
2018-07-09T21:29:57.721Z,32.45
2018-07-09T21:32:25.204Z,32.71
2018-07-09T21:34:52.601Z,32.11
2018-07-09T21:37:19.903Z,32.54
2018-07-09T21:39:47.187Z,32.99
2018-07-09T21:42:15.737Z,32.59
2018-07-09T21:44:44.053Z,32.49
2018-07-09T21:47:11.383Z,32.58
2018-07-09T21:49:38.701Z,33.31
2018-07-09T21:52:06.243Z,32.92
2018-07-09T21:54:33.528Z,33.02
2018-07-09T21:57:01.438Z,33.23
2018-07-09T21:59:29.084Z,33.95
2018-07-09T22:01:56.631Z,34.65
2018-07-09T22:04:24.014Z,35.19
2018-07-09T22:06:51.352Z,34.86
2018-07-09T22:09:18.648Z,35.02
2018-07-09T22:11:45.972Z,35.98
2018-07-09T22:14:13.276Z,34.85
2018-07-09T22:16:40.568Z,34.77
2018-07-09T22:19:07.896Z,35.24
2018-07-09T22:21:35.198Z,34.80
2018-07-09T22:24:02.580Z,35.70
2018-07-09T22:26:30.299Z,36.65
2018-07-09T22:28:57.639Z,35.18
2018-07-09T22:31:26.359Z,34.80
2018-07-09T22:33:54.984Z,34.93
2018-07-09T22:36:23.528Z,34.98
2018-07-09T22:38:52.339Z,34.63
2018-07-09T22:41:21.284Z,34.79
2018-07-09T22:44:01.208Z,34.94
2018-07-09T22:46:30.187Z,35.42
2018-07-09T22:48:58.862Z,34.30
2018-07-09T22:51:27.820Z,34.50
2018-07-09T22:53:57.064Z,35.17
2018-07-09T22:56:26.172Z,35.36
2018-07-09T22:58:55.052Z,35.17
2018-07-09T23:01:24.053Z,35.64
2018-07-09T23:03:52.631Z,35.00
2018-07-09T23:06:21.575Z,35.65
2018-07-09T23:08:50.264Z,35.72
2018-07-09T23:11:30.096Z,35.20
2018-07-09T23:16:45.167Z,35.63
2018-07-09T23:19:30.902Z,35.01
2018-07-09T23:22:10.878Z,34.73
2018-07-09T23:24:38.175Z,35.61
2018-07-09T23:27:05.515Z,35.39
2018-07-09T23:29:33.042Z,36.04
2018-07-09T23:32:00.323Z,35.61
2018-07-09T23:34:27.607Z,35.88
2018-07-09T23:36:54.964Z,35.19
2018-07-09T23:39:22.349Z,37.85
2018-07-09T23:41:49.636Z,38.26
2018-07-09T23:44:16.975Z,38.30
2018-07-09T23:46:44.283Z,37.97
2018-07-09T23:49:11.576Z,38.39
2018-07-09T23:51:38.895Z,38.86
2018-07-09T23:54:06.309Z,38.74
2018-07-09T23:59:53.934Z,39.71
